Latest Weather Observations for Moranbah Airport

IDQ60801

Issued at 7:02 am EST Monday 30 May 2016 (issued every 30 minutes, with the page automatically refreshed every 10 minutes)

About weather observations | Map of weather stations | Latest weather observations for QLD | Other Formats
Station Details ID: 034035 Name: MORANBAH AIRPORT Lat: -22.06 Lon: 148.08 Height: 232.2 m
Data from the previous 72 hours. | See also: Recent months at Moranbah Airport
Date/Time
EST
Temp
°C
App
Temp
°C
Dew
Point
Rel
Hum
%
Delta-T
°C
Wind Press
QNH
hPa
Press
MSL
hPa
Rain
since 9 am
mm
Dir
 
Spd
km/h
Gust
km/h
Spd
kts
Gust
kts
30/07:00am 13.8 12.4 10.8 82 1.6 SE 9 11 5 6 1020.8 1020.1 0.0
30/06:49am 13.4 11.9 10.6 83 1.5 ESE 9 11 5 6 1020.6 1019.9 0.0
30/06:30am 13.1 11.7 10.8 86 1.2 ESE 9 11 5 6 1020.3 1019.6 0.0
30/06:00am 12.4 10.1 10.3 87 1.1 ESE 13 15 7 8 1020.1 1019.4 0.0
30/05:30am 12.8 12.5 10.2 84 1.4 ESE 2 9 1 5 1019.9 1019.2 0.0
30/05:00am 13.7 12.9 11.0 84 1.4 SE 6 9 3 5 1019.7 1019.0 0.0
30/04:30am 14.3 12.3 11.6 84 1.5 SE 13 15 7 8 1019.4 1018.7 0.0
30/04:00am 14.9 12.7 12.0 83 1.6 SE 15 17 8 9 1019.3 1018.6 0.0
30/03:30am 14.9 12.1 11.3 79 1.9 SE 17 20 9 11 1019.3 1018.6 0.0
30/03:00am 15.1 12.1 10.7 75 2.3 SE 17 20 9 11 1019.2 1018.5 0.0
30/02:30am 15.2 12.5 10.2 72 2.6 SE 15 19 8 10 1019.2 1018.5 0.0
30/02:00am 15.2 12.3 9.6 69 2.9 SE 15 17 8 9 1019.2 1018.5 0.0
30/01:30am 15.3 12.5 10.1 71 2.8 SE 15 17 8 9 1019.3 1018.6 0.0
30/01:00am 15.1 12.5 9.2 68 3.1 SE 13 15 7 8 1019.2 1018.5 0.0
30/12:30am 15.7 12.7 9.1 65 3.4 SE 15 19 8 10 1019.2 1018.5 0.0
30/12:00am 15.6 12.3 7.9 60 3.9 SE 15 15 8 8 1019.4 1018.7 0.0
 
Date/Time
EST
Temp
°C
App
Temp
°C
Dew
Point
Rel
Hum
%
Delta-T
°C
Wind Press
QNH
hPa
Press
MSL
hPa
Rain
since 9 am
mm
Dir
 
Spd
km/h
Gust
km/h
Spd
kts
Gust
kts
29/11:30pm 15.9 12.8 7.1 56 4.4 SE 13 15 7 8 1019.5 1018.8 0.0
29/11:00pm 16.1 12.5 5.1 48 5.3 SSE 13 13 7 7 1019.7 1019.0 0.0
29/10:30pm 16.9 12.7 3.9 42 6.1 SE 15 17 8 9 1019.7 1019.0 0.0
29/10:00pm 17.2 13.1 4.2 42 6.2 SE 15 15 8 8 1019.7 1019.0 0.0
29/09:30pm 17.8 13.6 4.0 40 6.6 SE 15 17 8 9 1019.6 1018.9 0.0
29/09:00pm 18.3 14.5 3.8 38 6.9 SE 13 15 7 8 1019.5 1018.8 0.0
29/08:30pm 18.6 14.8 4.0 38 7.0 SE 13 15 7 8 1019.2 1018.5 0.0
29/08:00pm 18.0 14.1 3.5 38 6.8 SE 13 15 7 8 1019.0 1018.3 0.0
29/07:30pm 18.7 14.5 3.7 37 7.1 SE 15 15 8 8 1018.6 1017.9 0.0
29/07:00pm 19.4 15.2 3.6 35 7.5 SE 15 15 8 8 1018.4 1017.7 0.0
29/06:30pm 20.6 16.5 4.2 34 8.0 ESE 15 15 8 8 1018.1 1017.4 0.0
29/06:00pm 21.2 17.4 3.9 32 8.4 ESE 13 15 7 8 1017.7 1017.0 0.0
29/05:30pm 23.1 19.5 3.1 27 9.7 ESE 11 11 6 6 1017.7 1017.0 0.0
29/05:00pm 26.1 23.1 4.0 24 11.1 SE 9 11 5 6 1017.3 1016.6 0.0
29/04:30pm 26.7 23.5 3.2 22 11.7 ESE 9 13 5 7 1017.1 1016.3 0.0
29/04:00pm 26.6 23.4 3.2 22 11.7 SE 9 19 5 10 1016.9 1016.1 0.0
29/03:30pm 27.6 25.1 4.0 22 12.0 ENE 6 15 3 8 1016.8 1016.0 0.0
29/03:00pm 27.4 23.8 3.2 21 12.1 S 11 20 6 11 1016.8 1016.0 0.0
29/02:30pm 27.1 24.4 3.6 22 11.8 SSE 7 13 4 7 1016.8 1016.0 0.0
29/02:00pm 26.8 23.3 3.3 22 11.7 SE 11 19 6 10 1016.9 1016.1 0.0
29/01:30pm 26.1 21.7 2.7 22 11.5 ESE 15 22 8 12 1017.0 1016.2 0.0
29/01:00pm 26.3 22.3 2.9 22 11.6 SE 13 22 7 12 1017.4 1016.7 0.0
29/12:30pm 25.3 21.3 2.7 23 11.1 E 13 22 7 12 1017.8 1017.1 0.0
29/12:00pm 24.2 19.7 2.4 24 10.5 SE 15 24 8 13 1018.5 1017.8 0.0
29/11:30am 24.1 19.6 2.3 24 10.5 ESE 15 24 8 13 1019.0 1018.3 0.0
29/11:00am 23.2 17.9 2.1 25 10.1 SE 19 28 10 15 1019.5 1018.8 0.0
29/10:30am 22.7 17.3 2.2 26 9.8 ESE 20 30 11 16 1020.0 1019.3 0.0
29/10:00am 21.6 15.8 2.3 28 9.1 ESE 22 30 12 16 1020.4 1019.7 0.0
29/09:30am 20.7 14.6 2.5 30 8.6 ESE 24 32 13 17 1020.3 1019.6 0.0
29/09:00am 20.2 14.1 2.5 31 8.3 ESE 24 32 13 17 1020.2 1019.5 0.0
29/08:30am 19.2 13.5 3.0 34 7.6 SE 22 32 12 17 1020.3 1019.6 0.0
29/08:00am 17.3 12.3 3.6 40 6.4 SE 19 28 10 15 1019.9 1019.2 0.0
29/07:30am 14.1 12.4 6.0 58 3.9 SSE 4 7 2 4 1019.4 1018.7 0.0
29/07:00am 10.7 8.4 4.6 66 2.8 E 6 7 3 4 1019.2 1018.5 0.0
29/06:30am 11.2 8.7 4.7 64 3.0 S 7 7 4 4 1018.9 1018.2 0.0
29/06:00am 10.9 9.7 4.6 65 2.9 CALM 0 0 0 0 1018.6 1017.9 0.0
29/05:30am 11.9 8.7 5.1 63 3.2 S 11 13 6 7 1018.0 1017.3 0.0
29/05:00am 12.2 9.4 5.1 62 3.3 SE 9 11 5 6 1017.5 1016.8 0.0
29/04:30am 12.7 10.2 4.9 59 3.6 S 7 9 4 5 1017.6 1016.9 0.0
29/04:00am 13.3 10.5 5.2 58 3.8 ESE 9 9 5 5 1017.1 1016.3 0.0
29/03:30am 13.7 10.6 5.6 58 3.9 ESE 11 13 6 7 1017.2 1016.4 0.0
29/03:00am 14.1 11.1 6.0 58 3.9 E 11 11 6 6 1017.2 1016.4 0.0
29/02:30am 14.4 11.7 5.7 56 4.2 SE 9 11 5 6 1017.4 1016.7 0.0
29/02:00am 15.1 12.5 5.9 54 4.5 SE 9 9 5 5 1017.4 1016.7 0.0
29/01:30am 14.4 11.6 5.2 54 4.4 SE 9 9 5 5 1017.2 1016.4 0.0
29/01:00am 14.1 11.8 4.9 54 4.3 ESE 6 7 3 4 1017.0 1016.2 0.0
29/12:30am 15.9 13.9 6.1 52 4.8 SSE 6 7 3 4 1017.0 1016.2 0.0
29/12:00am 15.0 12.8 5.2 52 4.7 SE 6 6 3 3 1017.1 1016.3 0.0
 
Date/Time
EST
Temp
°C
App
Temp
°C
Dew
Point
Rel
Hum
%
Delta-T
°C
Wind Press
QNH
hPa
Press
MSL
hPa
Rain
since 9 am
mm
Dir
 
Spd
km/h
Gust
km/h
Spd
kts
Gust
kts
28/11:30pm 16.0 13.9 5.6 50 5.0 SE 6 7 3 4 1017.5 1016.8 0.0
28/11:00pm 18.4 15.7 5.6 43 6.3 SSW 9 11 5 6 1017.4 1016.7 0.0
28/10:30pm 18.1 15.0 5.7 44 6.1 S 11 13 6 7 1017.3 1016.6 0.0
28/10:00pm 18.1 15.3 5.3 43 6.3 SSW 9 11 5 6 1017.4 1016.7 0.0
28/09:30pm 19.0 16.2 5.1 40 6.8 SSW 9 11 5 6 1017.2 1016.4 0.0
28/09:00pm 19.9 17.1 5.2 38 7.3 SSW 9 9 5 5 1017.1 1016.3 0.0
28/08:30pm 20.2 17.0 5.1 37 7.5 SSW 11 13 6 7 1017.0 1016.2 0.0
28/08:00pm 20.8 17.5 4.8 35 7.9 SW 11 11 6 6 1016.6 1015.9 0.0
28/07:30pm 21.1 18.2 4.6 34 8.1 SW 9 11 5 6 1016.3 1015.6 0.0
28/07:00pm 22.0 19.1 4.6 32 8.6 WSW 9 11 5 6 1016.0 1015.3 0.0
28/06:30pm 23.6 20.7 4.5 29 9.6 WSW 9 11 5 6 1015.5 1014.8 0.0
28/06:00pm 24.6 21.7 4.4 27 10.2 WSW 9 11 5 6 1015.1 1014.4 0.0
28/05:30pm 25.7 22.0 2.4 22 11.4 WSW 11 13 6 7 1014.8 1014.1 0.0
28/05:00pm 27.9 23.9 2.9 20 12.5 WSW 13 19 7 10 1014.7 1014.0 0.0
28/04:30pm 28.5 23.7 2.7 19 12.9 WSW 17 22 9 12 1014.3 1013.6 0.0
28/04:00pm 29.2 24.4 2.5 18 13.4 W 17 24 9 13 1014.2 1013.5 0.0
28/03:30pm 29.1 24.3 2.4 18 13.4 W 17 28 9 15 1014.1 1013.4 0.0
28/03:00pm 29.6 25.4 3.6 19 13.3 W 15 20 8 11 1014.1 1013.4 0.0
28/02:30pm 28.8 24.6 3.6 20 12.8 W 15 24 8 13 1014.3 1013.6 0.0
28/02:00pm 29.4 25.8 4.8 21 12.8 W 13 22 7 12 1014.5 1013.8 0.0
28/01:30pm 28.2 24.2 3.1 20 12.6 WSW 13 24 7 13 1014.7 1014.0 0.0
28/01:00pm 27.5 23.1 4.5 23 11.8 W 17 24 9 13 1015.1 1014.4 0.0
28/12:30pm 27.2 23.7 5.5 25 11.3 SW 13 22 7 12 1015.5 1014.8 0.0
28/12:00pm 26.4 22.7 4.2 24 11.3 W 13 24 7 13 1016.0 1015.3 0.0
28/11:30am 25.9 22.9 7.5 31 9.9 W 13 24 7 13 1016.5 1015.8 0.0
28/11:00am 25.5 22.6 8.1 33 9.4 SW 13 24 7 13 1016.9 1016.1 0.0
28/10:30am 23.7 20.6 7.3 35 8.7 WSW 13 20 7 11 1017.3 1016.6 0.0
28/10:00am 22.9 20.1 8.6 40 7.7 WSW 13 22 7 12 1017.7 1017.0 0.0
28/09:30am 22.4 20.0 9.9 45 6.9 WSW 13 20 7 11 1018.0 1017.3 0.0
28/09:00am 22.1 19.0 10.3 47 6.5 SW 17 22 9 12 1017.8 1017.1 0.0
28/08:30am 20.3 18.1 10.7 54 5.3 WSW 13 19 7 10 1017.7 1017.0 0.0
28/08:00am 19.5 17.8 11.3 59 4.5 W 11 17 6 9 1017.6 1016.9 0.0
28/07:30am 17.5 16.9 11.8 69 3.2 SW 6 7 3 4 1017.1 1016.3 0.0
28/07:00am 15.9 15.2 11.5 75 2.4 SW 6 9 3 5 1016.8 1016.0 0.0
28/06:30am 14.6 14.4 10.6 77 2.1 NE 2 7 1 4 1016.2 1015.5 0.0
28/06:00am 15.4 15.8 11.4 77 2.2 CALM 0 0 0 0 1015.7 1015.0 0.0
28/05:30am 15.9 16.2 10.9 72 2.7 CALM 0 0 0 0 1015.4 1014.7 0.0
28/05:00am 16.6 17.1 11.5 72 2.8 CALM 0 0 0 0 1015.2 1014.5 0.0
28/04:30am 17.3 16.0 11.3 68 3.3 WSW 9 9 5 5 1015.3 1014.6 0.0
28/04:00am 18.1 18.7 11.9 67 3.4 CALM 0 0 0 0 1015.0 1014.3 0.0
28/03:30am 17.8 18.0 11.8 68 3.3 W 2 7 1 4 1015.2 1014.5 0.0
28/03:00am 18.1 17.4 12.1 68 3.3 NW 7 9 4 5 1015.3 1014.6 0.0
28/02:30am 17.5 16.7 11.8 69 3.2 WNW 7 9 4 5 1015.3 1014.6 0.0
28/02:00am 17.3 16.5 11.1 67 3.4 NNE 6 7 3 4 1015.2 1014.5 0.0
28/01:30am 18.4 17.6 11.2 63 4.0 NE 6 9 3 5 1015.5 1014.8 0.0
28/01:00am 19.6 18.5 11.9 61 4.3 ESE 9 9 5 5 1015.4 1014.7 0.0
28/12:30am 19.9 18.3 11.7 59 4.6 SSE 11 13 6 7 1015.0 1014.3 0.0
28/12:00am 20.5 19.0 12.0 58 4.8 SSE 11 13 6 7 1014.8 1014.1 0.0
 
Date/Time
EST
Temp
°C
App
Temp
°C
Dew
Point
Rel
Hum
%
Delta-T
°C
Wind Press
QNH
hPa
Press
MSL
hPa
Rain
since 9 am
mm
Dir
 
Spd
km/h
Gust
km/h
Spd
kts
Gust
kts
27/11:30pm 21.5 19.4 12.4 56 5.2 SE 15 20 8 11 1014.5 1013.8 0.0
27/11:00pm 22.4 19.4 12.4 53 5.7 SSE 20 28 11 15 1014.4 1013.7 0.0
27/10:30pm 23.2 20.4 12.5 51 6.2 SSE 19 26 10 14 1014.1 1013.4 0.0
27/10:00pm 24.2 20.4 12.5 48 6.8 SSE 24 35 13 19 1014.0 1013.3 0.0
27/09:30pm 25.2 21.0 12.4 45 7.4 SSE 26 37 14 20 1013.5 1012.7 0.0
27/09:00pm 25.2 23.9 11.4 42 7.9 SW 9 11 5 6 1012.9 1012.1 0.0
27/08:30pm 26.0 24.0 11.4 40 8.4 SW 13 17 7 9 1012.5 1011.7 0.0
27/08:00pm 26.4 24.3 11.3 39 8.7 SW 13 15 7 8 1012.4 1011.6 0.0
27/07:30pm 26.8 24.7 11.3 38 8.9 WSW 13 17 7 9 1012.0 1011.3 0.0
27/07:00pm 27.1 25.0 11.2 37 9.1 WSW 13 15 7 8 1011.7 1011.0 0.0
27/06:30pm 28.3 26.5 10.9 34 10.0 W 11 15 6 8 1011.2 1010.5 0.0
27/06:00pm 29.8 27.6 10.9 31 10.9 W 13 17 7 9 1010.8 1010.1 0.0
27/05:30pm 30.8 28.0 11.2 30 11.4 W 17 22 9 12 1010.6 1009.9 0.0
27/05:00pm 32.0 28.6 11.2 28 12.2 W 20 30 11 16 1010.1 1009.4 0.0
27/04:30pm 32.9 29.5 11.4 27 12.7 W 20 32 11 17 1009.8 1009.1 0.0
27/04:00pm 32.5 27.5 11.1 27 12.6 WNW 28 35 15 19 1009.7 1008.9 0.0
27/03:30pm 33.5 29.5 11.9 27 12.9 WNW 24 33 13 18 1009.6 1008.8 0.0
27/03:00pm 32.8 28.5 11.9 28 12.5 W 26 35 14 19 1009.7 1008.9 0.0
27/02:30pm 33.5 29.7 12.5 28 12.6 WNW 24 37 13 20 1009.7 1008.9 0.0
27/02:00pm 34.0 30.7 14.0 30 12.4 W 24 35 13 19 1010.0 1009.3 0.0
27/01:30pm 32.3 28.5 13.5 32 11.4 WNW 26 37 14 20 1010.4 1009.7 0.0
27/01:00pm 32.5 29.1 13.7 32 11.5 NW 24 41 13 22 1010.6 1009.9 0.0
27/12:30pm 32.1 29.4 14.7 35 10.8 WNW 22 35 12 19 1011.3 1010.6 0.0
27/12:00pm 31.4 28.8 15.0 37 10.2 WNW 22 32 12 17 1011.9 1011.2 0.0
27/11:30am 30.4 29.2 16.0 41 9.0 NW 17 26 9 14 1012.6 1011.8 0.0
27/11:00am 29.5 27.9 16.0 44 8.4 NW 19 26 10 14 1013.2 1012.4 0.0
27/10:30am 29.2 28.1 17.4 49 7.5 WNW 19 30 10 16 1013.8 1013.1 0.0
27/10:00am 28.1 27.2 18.2 55 6.4 NW 20 35 11 19 1014.2 1013.5 0.0
27/09:30am 26.5 25.7 18.4 61 5.2 NW 20 28 11 15 1014.5 1013.8 0.0
27/09:00am 25.4 24.5 18.3 65 4.5 NNW 20 30 11 16 1014.3 1013.6 0.0
27/08:30am 24.0 23.5 18.6 72 3.4 NNW 19 24 10 13 1014.4 1013.7 0.0
27/08:00am 22.4 22.7 18.8 80 2.3 NNW 15 20 8 11 1014.3 1013.6 0.0
27/07:30am 21.1 21.7 18.5 85 1.6 NW 13 17 7 9 1014.0 1013.3 0.0

Other Formats:

Comma delimited format used in spreadsheet applications
http://www.bom.gov.au/fwo/IDQ60801/IDQ60801.94397.axf

JavaScript Object Notation format (JSON) in row-major order
http://www.bom.gov.au/fwo/IDQ60801/IDQ60801.94397.json